sensor_id;sensor_type;location;lat;lon;timestamp;temperature;humidity
51853;DHT22;37894;53.172;6.598;2022-07-23T00:00:16;14.70;99.90
51853;DHT22;37894;53.172;6.598;2022-07-23T00:02:43;14.60;99.90
51853;DHT22;37894;53.172;6.598;2022-07-23T00:05:10;14.60;99.90
51853;DHT22;37894;53.172;6.598;2022-07-23T00:07:36;14.60;99.90
51853;DHT22;37894;53.172;6.598;2022-07-23T00:10:03;14.60;99.90
51853;DHT22;37894;53.172;6.598;2022-07-23T00:12:28;14.60;99.90
51853;DHT22;37894;53.172;6.598;2022-07-23T00:14:54;14.60;99.90
51853;DHT22;37894;53.172;6.598;2022-07-23T00:17:20;14.60;99.90
51853;DHT22;37894;53.172;6.598;2022-07-23T00:19:45;14.60;99.90
51853;DHT22;37894;53.172;6.598;2022-07-23T00:22:11;14.50;99.90
51853;DHT22;37894;53.172;6.598;2022-07-23T00:24:37;14.50;99.90
51853;DHT22;37894;53.172;6.598;2022-07-23T00:27:03;14.50;99.90
51853;DHT22;37894;53.172;6.598;2022-07-23T00:29:29;14.50;99.90
51853;DHT22;37894;53.172;6.598;2022-07-23T00:31:54;14.50;99.90
51853;DHT22;37894;53.172;6.598;2022-07-23T00:34:20;14.40;99.90
51853;DHT22;37894;53.172;6.598;2022-07-23T00:36:46;14.40;99.90
51853;DHT22;37894;53.172;6.598;2022-07-23T00:39:11;14.50;99.90
51853;DHT22;37894;53.172;6.598;2022-07-23T00:41:37;14.40;99.90
51853;DHT22;37894;53.172;6.598;2022-07-23T00:44:17;14.40;99.90
51853;DHT22;37894;53.172;6.598;2022-07-23T00:46:49;14.40;99.90
51853;DHT22;37894;53.172;6.598;2022-07-23T00:49:19;14.40;99.90
51853;DHT22;37894;53.172;6.598;2022-07-23T00:51:45;14.40;99.90
51853;DHT22;37894;53.172;6.598;2022-07-23T00:54:11;14.30;99.90
51853;DHT22;37894;53.172;6.598;2022-07-23T00:56:37;14.30;99.90
51853;DHT22;37894;53.172;6.598;2022-07-23T00:59:03;14.40;99.90
51853;DHT22;37894;53.172;6.598;2022-07-23T01:01:30;14.40;99.90
51853;DHT22;37894;53.172;6.598;2022-07-23T01:03:56;14.40;99.90
51853;DHT22;37894;53.172;6.598;2022-07-23T01:06:22;14.30;99.90
51853;DHT22;37894;53.172;6.598;2022-07-23T01:08:48;14.80;99.90
51853;DHT22;37894;53.172;6.598;2022-07-23T01:11:14;14.30;99.90
51853;DHT22;37894;53.172;6.598;2022-07-23T01:13:43;14.80;99.90
51853;DHT22;37894;53.172;6.598;2022-07-23T01:16:09;14.30;99.90
51853;DHT22;37894;53.172;6.598;2022-07-23T01:18:34;14.30;99.90
51853;DHT22;37894;53.172;6.598;2022-07-23T01:21:00;14.30;99.90
51853;DHT22;37894;53.172;6.598;2022-07-23T01:23:26;14.30;99.90
51853;DHT22;37894;53.172;6.598;2022-07-23T01:25:53;14.30;99.90
51853;DHT22;37894;53.172;6.598;2022-07-23T01:28:19;14.20;99.90
51853;DHT22;37894;53.172;6.598;2022-07-23T01:30:45;14.20;99.90
51853;DHT22;37894;53.172;6.598;2022-07-23T01:33:11;14.20;99.90
51853;DHT22;37894;53.172;6.598;2022-07-23T01:35:37;14.10;99.90
51853;DHT22;37894;53.172;6.598;2022-07-23T01:38:03;14.10;99.90
51853;DHT22;37894;53.172;6.598;2022-07-23T01:40:28;14.00;99.90
51853;DHT22;37894;53.172;6.598;2022-07-23T01:42:54;14.00;99.90
51853;DHT22;37894;53.172;6.598;2022-07-23T01:45:20;13.90;99.90
51853;DHT22;37894;53.172;6.598;2022-07-23T01:47:46;13.80;99.90
51853;DHT22;37894;53.172;6.598;2022-07-23T01:50:12;13.80;99.90
51853;DHT22;37894;53.172;6.598;2022-07-23T01:52:38;13.80;99.90
51853;DHT22;37894;53.172;6.598;2022-07-23T01:55:04;13.70;99.90
51853;DHT22;37894;53.172;6.598;2022-07-23T01:57:31;13.60;99.90
51853;DHT22;37894;53.172;6.598;2022-07-23T01:59:57;13.60;99.90
51853;DHT22;37894;53.172;6.598;2022-07-23T02:02:22;13.50;99.90
51853;DHT22;37894;53.172;6.598;2022-07-23T02:04:48;13.50;99.90
51853;DHT22;37894;53.172;6.598;2022-07-23T02:07:13;13.50;99.90
51853;DHT22;37894;53.172;6.598;2022-07-23T02:09:39;13.50;99.90
51853;DHT22;37894;53.172;6.598;2022-07-23T02:12:05;13.40;99.90
51853;DHT22;37894;53.172;6.598;2022-07-23T02:14:31;13.40;99.90
51853;DHT22;37894;53.172;6.598;2022-07-23T02:16:56;13.30;99.90
51853;DHT22;37894;53.172;6.598;2022-07-23T02:19:22;13.30;99.90
51853;DHT22;37894;53.172;6.598;2022-07-23T02:21:48;13.20;99.90
51853;DHT22;37894;53.172;6.598;2022-07-23T02:24:14;13.20;99.90
51853;DHT22;37894;53.172;6.598;2022-07-23T02:26:40;13.80;99.90
51853;DHT22;37894;53.172;6.598;2022-07-23T02:29:06;13.10;99.90
51853;DHT22;37894;53.172;6.598;2022-07-23T02:31:32;13.10;99.90
51853;DHT22;37894;53.172;6.598;2022-07-23T02:33:58;13.10;99.90
51853;DHT22;37894;53.172;6.598;2022-07-23T02:36:23;13.10;99.90
51853;DHT22;37894;53.172;6.598;2022-07-23T02:38:50;13.10;99.90
51853;DHT22;37894;53.172;6.598;2022-07-23T02:41:15;13.10;99.90
51853;DHT22;37894;53.172;6.598;2022-07-23T02:43:41;13.10;99.90
51853;DHT22;37894;53.172;6.598;2022-07-23T02:46:07;13.10;99.90
51853;DHT22;37894;53.172;6.598;2022-07-23T02:48:33;13.10;99.90
51853;DHT22;37894;53.172;6.598;2022-07-23T02:50:58;13.20;99.90
51853;DHT22;37894;53.172;6.598;2022-07-23T02:53:24;13.20;99.90
51853;DHT22;37894;53.172;6.598;2022-07-23T02:55:50;13.30;99.90
51853;DHT22;37894;53.172;6.598;2022-07-23T02:58:16;13.20;99.90
51853;DHT22;37894;53.172;6.598;2022-07-23T03:00:41;13.30;99.90
51853;DHT22;37894;53.172;6.598;2022-07-23T03:03:07;13.30;99.90
51853;DHT22;37894;53.172;6.598;2022-07-23T03:05:34;13.30;99.90
51853;DHT22;37894;53.172;6.598;2022-07-23T03:07:59;14.10;99.90
51853;DHT22;37894;53.172;6.598;2022-07-23T03:10:25;13.60;99.90
51853;DHT22;37894;53.172;6.598;2022-07-23T03:12:51;13.50;99.90
51853;DHT22;37894;53.172;6.598;2022-07-23T03:15:16;13.40;99.90
51853;DHT22;37894;53.172;6.598;2022-07-23T03:17:42;13.40;99.90
51853;DHT22;37894;53.172;6.598;2022-07-23T03:20:08;13.40;99.90
51853;DHT22;37894;53.172;6.598;2022-07-23T03:22:34;13.40;99.90
51853;DHT22;37894;53.172;6.598;2022-07-23T03:25:00;13.30;99.90
51853;DHT22;37894;53.172;6.598;2022-07-23T03:27:28;13.30;99.90
51853;DHT22;37894;53.172;6.598;2022-07-23T03:29:56;13.30;99.90
51853;DHT22;37894;53.172;6.598;2022-07-23T03:32:22;13.80;99.90
51853;DHT22;37894;53.172;6.598;2022-07-23T03:34:49;13.30;99.90
51853;DHT22;37894;53.172;6.598;2022-07-23T03:37:15;13.30;99.90
51853;DHT22;37894;53.172;6.598;2022-07-23T03:39:41;13.70;99.90
51853;DHT22;37894;53.172;6.598;2022-07-23T03:42:07;13.30;99.90
51853;DHT22;37894;53.172;6.598;2022-07-23T03:44:33;13.30;99.90
51853;DHT22;37894;53.172;6.598;2022-07-23T03:46:59;13.30;99.90
51853;DHT22;37894;53.172;6.598;2022-07-23T03:49:25;13.50;99.90
51853;DHT22;37894;53.172;6.598;2022-07-23T03:51:51;13.50;99.90
51853;DHT22;37894;53.172;6.598;2022-07-23T03:54:16;13.40;99.90
51853;DHT22;37894;53.172;6.598;2022-07-23T03:56:42;13.40;99.90
51853;DHT22;37894;53.172;6.598;2022-07-23T03:59:09;13.40;99.90
51853;DHT22;37894;53.172;6.598;2022-07-23T04:01:35;13.60;99.90
51853;DHT22;37894;53.172;6.598;2022-07-23T04:04:01;13.50;99.90
51853;DHT22;37894;53.172;6.598;2022-07-23T04:06:27;13.50;99.90
51853;DHT22;37894;53.172;6.598;2022-07-23T04:08:53;13.50;99.90
51853;DHT22;37894;53.172;6.598;2022-07-23T04:11:19;13.60;99.90
51853;DHT22;37894;53.172;6.598;2022-07-23T04:13:44;13.60;99.90
51853;DHT22;37894;53.172;6.598;2022-07-23T04:16:10;13.60;99.90
51853;DHT22;37894;53.172;6.598;2022-07-23T04:18:35;13.60;99.90
51853;DHT22;37894;53.172;6.598;2022-07-23T04:21:01;13.70;99.90
51853;DHT22;37894;53.172;6.598;2022-07-23T04:23:27;13.70;99.90
51853;DHT22;37894;53.172;6.598;2022-07-23T04:25:52;13.70;99.90
51853;DHT22;37894;53.172;6.598;2022-07-23T04:28:18;13.90;99.90
51853;DHT22;37894;53.172;6.598;2022-07-23T04:30:43;14.00;99.90
51853;DHT22;37894;53.172;6.598;2022-07-23T04:33:09;13.80;99.90
51853;DHT22;37894;53.172;6.598;2022-07-23T04:35:35;13.80;99.90
51853;DHT22;37894;53.172;6.598;2022-07-23T04:38:02;13.90;99.90
51853;DHT22;37894;53.172;6.598;2022-07-23T04:40:28;13.80;99.90
51853;DHT22;37894;53.172;6.598;2022-07-23T04:42:54;13.90;99.90
51853;DHT22;37894;53.172;6.598;2022-07-23T04:45:20;13.90;99.90
51853;DHT22;37894;53.172;6.598;2022-07-23T04:47:46;13.90;99.90
51853;DHT22;37894;53.172;6.598;2022-07-23T04:50:12;13.90;99.90
51853;DHT22;37894;53.172;6.598;2022-07-23T04:52:38;14.00;99.90
51853;DHT22;37894;53.172;6.598;2022-07-23T04:55:04;14.00;99.90
51853;DHT22;37894;53.172;6.598;2022-07-23T04:57:30;14.00;99.90
51853;DHT22;37894;53.172;6.598;2022-07-23T04:59:56;14.00;99.90
51853;DHT22;37894;53.172;6.598;2022-07-23T05:02:21;14.00;99.90
51853;DHT22;37894;53.172;6.598;2022-07-23T05:04:47;14.00;99.90
51853;DHT22;37894;53.172;6.598;2022-07-23T05:07:12;14.00;99.90
51853;DHT22;37894;53.172;6.598;2022-07-23T05:09:38;14.00;99.90
51853;DHT22;37894;53.172;6.598;2022-07-23T05:12:04;14.00;99.90
51853;DHT22;37894;53.172;6.598;2022-07-23T05:14:30;14.00;99.90
51853;DHT22;37894;53.172;6.598;2022-07-23T05:16:55;14.00;99.90
51853;DHT22;37894;53.172;6.598;2022-07-23T05:19:21;14.50;99.90
51853;DHT22;37894;53.172;6.598;2022-07-23T05:21:47;14.00;99.90
51853;DHT22;37894;53.172;6.598;2022-07-23T05:24:13;14.20;99.90
51853;DHT22;37894;53.172;6.598;2022-07-23T05:26:38;14.10;99.90
51853;DHT22;37894;53.172;6.598;2022-07-23T05:29:04;14.20;99.90
51853;DHT22;37894;53.172;6.598;2022-07-23T05:31:30;14.30;99.90
51853;DHT22;37894;53.172;6.598;2022-07-23T05:33:55;14.40;99.90
51853;DHT22;37894;53.172;6.598;2022-07-23T05:36:21;14.60;99.90
51853;DHT22;37894;53.172;6.598;2022-07-23T05:38:46;14.60;99.90
51853;DHT22;37894;53.172;6.598;2022-07-23T05:41:12;14.60;99.90
51853;DHT22;37894;53.172;6.598;2022-07-23T05:43:38;14.70;99.90
51853;DHT22;37894;53.172;6.598;2022-07-23T05:46:03;16.70;99.90
51853;DHT22;37894;53.172;6.598;2022-07-23T05:48:30;14.70;99.90
51853;DHT22;37894;53.172;6.598;2022-07-23T05:50:55;14.70;99.90
51853;DHT22;37894;53.172;6.598;2022-07-23T05:53:21;14.70;99.90
51853;DHT22;37894;53.172;6.598;2022-07-23T05:55:46;14.80;99.90
51853;DHT22;37894;53.172;6.598;2022-07-23T05:58:12;15.10;99.90
51853;DHT22;37894;53.172;6.598;2022-07-23T06:00:38;15.40;99.90
51853;DHT22;37894;53.172;6.598;2022-07-23T06:03:03;15.20;99.90
51853;DHT22;37894;53.172;6.598;2022-07-23T06:05:29;15.40;99.90
51853;DHT22;37894;53.172;6.598;2022-07-23T06:07:55;15.40;99.90
51853;DHT22;37894;53.172;6.598;2022-07-23T06:10:20;15.50;99.90
51853;DHT22;37894;53.172;6.598;2022-07-23T06:12:46;15.60;99.90
51853;DHT22;37894;53.172;6.598;2022-07-23T06:15:12;15.70;99.90
51853;DHT22;37894;53.172;6.598;2022-07-23T06:17:39;15.70;99.90
51853;DHT22;37894;53.172;6.598;2022-07-23T06:20:09;15.80;99.90
51853;DHT22;37894;53.172;6.598;2022-07-23T06:22:36;15.80;99.90
51853;DHT22;37894;53.172;6.598;2022-07-23T06:25:02;15.90;99.90
51853;DHT22;37894;53.172;6.598;2022-07-23T06:27:28;16.00;99.90
51853;DHT22;37894;53.172;6.598;2022-07-23T06:29:53;16.00;99.90
51853;DHT22;37894;53.172;6.598;2022-07-23T06:32:19;16.10;99.90
51853;DHT22;37894;53.172;6.598;2022-07-23T06:34:45;16.20;99.90
51853;DHT22;37894;53.172;6.598;2022-07-23T06:37:11;16.20;99.90
51853;DHT22;37894;53.172;6.598;2022-07-23T06:39:36;16.30;99.90
51853;DHT22;37894;53.172;6.598;2022-07-23T06:42:02;16.40;99.90
51853;DHT22;37894;53.172;6.598;2022-07-23T06:44:27;16.40;99.90
51853;DHT22;37894;53.172;6.598;2022-07-23T06:46:53;16.50;99.90
51853;DHT22;37894;53.172;6.598;2022-07-23T06:49:19;16.50;99.90
51853;DHT22;37894;53.172;6.598;2022-07-23T06:51:45;16.50;99.90
51853;DHT22;37894;53.172;6.598;2022-07-23T06:54:10;16.50;99.90
51853;DHT22;37894;53.172;6.598;2022-07-23T06:56:36;16.50;99.90
51853;DHT22;37894;53.172;6.598;2022-07-23T06:59:02;16.60;99.90
51853;DHT22;37894;53.172;6.598;2022-07-23T07:01:28;16.70;99.90
51853;DHT22;37894;53.172;6.598;2022-07-23T07:03:53;16.90;99.90
51853;DHT22;37894;53.172;6.598;2022-07-23T07:06:19;16.90;99.90
51853;DHT22;37894;53.172;6.598;2022-07-23T07:08:45;17.00;99.90
51853;DHT22;37894;53.172;6.598;2022-07-23T07:11:10;17.00;99.90
51853;DHT22;37894;53.172;6.598;2022-07-23T07:13:43;17.20;99.90
51853;DHT22;37894;53.172;6.598;2022-07-23T07:16:08;17.40;99.90
51853;DHT22;37894;53.172;6.598;2022-07-23T07:18:34;17.50;99.90
51853;DHT22;37894;53.172;6.598;2022-07-23T07:20:59;17.60;99.90
51853;DHT22;37894;53.172;6.598;2022-07-23T07:23:25;17.60;99.90
51853;DHT22;37894;53.172;6.598;2022-07-23T07:25:51;17.80;99.90
51853;DHT22;37894;53.172;6.598;2022-07-23T07:28:16;17.90;99.90
51853;DHT22;37894;53.172;6.598;2022-07-23T07:30:42;18.10;99.90
51853;DHT22;37894;53.172;6.598;2022-07-23T07:33:08;18.40;99.90
51853;DHT22;37894;53.172;6.598;2022-07-23T07:35:33;18.60;99.90
51853;DHT22;37894;53.172;6.598;2022-07-23T07:37:59;18.60;99.90
51853;DHT22;37894;53.172;6.598;2022-07-23T07:40:26;18.60;99.90
51853;DHT22;37894;53.172;6.598;2022-07-23T07:42:53;18.50;99.90
51853;DHT22;37894;53.172;6.598;2022-07-23T07:45:23;18.50;99.90
51853;DHT22;37894;53.172;6.598;2022-07-23T07:47:51;18.50;99.90
51853;DHT22;37894;53.172;6.598;2022-07-23T07:50:18;18.50;99.90
51853;DHT22;37894;53.172;6.598;2022-07-23T07:52:44;18.50;99.90
51853;DHT22;37894;53.172;6.598;2022-07-23T07:55:11;18.50;99.90
51853;DHT22;37894;53.172;6.598;2022-07-23T07:57:37;18.50;99.90
51853;DHT22;37894;53.172;6.598;2022-07-23T08:00:05;18.50;99.90
51853;DHT22;37894;53.172;6.598;2022-07-23T08:02:53;18.40;99.90
51853;DHT22;37894;53.172;6.598;2022-07-23T08:05:24;18.40;99.90
51853;DHT22;37894;53.172;6.598;2022-07-23T08:07:50;18.50;99.90
51853;DHT22;37894;53.172;6.598;2022-07-23T08:10:16;18.50;99.90
51853;DHT22;37894;53.172;6.598;2022-07-23T08:12:44;18.60;99.90
51853;DHT22;37894;53.172;6.598;2022-07-23T08:15:10;18.70;99.90
51853;DHT22;37894;53.172;6.598;2022-07-23T08:17:36;18.80;99.90
51853;DHT22;37894;53.172;6.598;2022-07-23T08:20:03;18.70;99.90
51853;DHT22;37894;53.172;6.598;2022-07-23T08:23:04;18.80;99.90
51853;DHT22;37894;53.172;6.598;2022-07-23T08:25:41;19.00;99.90
51853;DHT22;37894;53.172;6.598;2022-07-23T08:28:09;19.20;99.90
51853;DHT22;37894;53.172;6.598;2022-07-23T08:30:36;19.40;99.90
51853;DHT22;37894;53.172;6.598;2022-07-23T08:33:04;19.70;99.90
51853;DHT22;37894;53.172;6.598;2022-07-23T08:35:40;20.00;99.90
51853;DHT22;37894;53.172;6.598;2022-07-23T08:38:08;20.30;99.90
51853;DHT22;37894;53.172;6.598;2022-07-23T08:40:36;20.50;99.90
51853;DHT22;37894;53.172;6.598;2022-07-23T08:43:05;20.70;99.90
51853;DHT22;37894;53.172;6.598;2022-07-23T08:45:36;20.70;99.90
51853;DHT22;37894;53.172;6.598;2022-07-23T08:48:03;20.80;99.90
51853;DHT22;37894;53.172;6.598;2022-07-23T08:50:29;20.90;99.90
51853;DHT22;37894;53.172;6.598;2022-07-23T08:52:54;20.90;99.90
51853;DHT22;37894;53.172;6.598;2022-07-23T08:55:22;20.90;99.90
51853;DHT22;37894;53.172;6.598;2022-07-23T08:57:50;20.80;99.90
51853;DHT22;37894;53.172;6.598;2022-07-23T09:00:17;20.80;99.90
51853;DHT22;37894;53.172;6.598;2022-07-23T09:02:44;20.60;99.90
51853;DHT22;37894;53.172;6.598;2022-07-23T09:05:11;20.70;99.90
51853;DHT22;37894;53.172;6.598;2022-07-23T09:10:29;20.60;99.90
51853;DHT22;37894;53.172;6.598;2022-07-23T09:12:55;20.70;99.90
51853;DHT22;37894;53.172;6.598;2022-07-23T09:15:20;20.80;99.90
51853;DHT22;37894;53.172;6.598;2022-07-23T09:17:46;21.00;99.90
51853;DHT22;37894;53.172;6.598;2022-07-23T09:20:15;21.00;99.90
51853;DHT22;37894;53.172;6.598;2022-07-23T09:22:45;20.90;99.90
51853;DHT22;37894;53.172;6.598;2022-07-23T09:25:16;20.80;99.90
51853;DHT22;37894;53.172;6.598;2022-07-23T09:27:59;20.80;99.90
51853;DHT22;37894;53.172;6.598;2022-07-23T09:30:29;20.80;99.90
51853;DHT22;37894;53.172;6.598;2022-07-23T09:33:10;20.70;99.90
51853;DHT22;37894;53.172;6.598;2022-07-23T09:35:51;20.80;99.90
51853;DHT22;37894;53.172;6.598;2022-07-23T09:38:18;20.80;99.90
51853;DHT22;37894;53.172;6.598;2022-07-23T09:40:44;21.00;99.90
51853;DHT22;37894;53.172;6.598;2022-07-23T09:43:12;21.10;99.90
51853;DHT22;37894;53.172;6.598;2022-07-23T09:45:38;21.20;99.90
51853;DHT22;37894;53.172;6.598;2022-07-23T09:48:15;21.20;99.90
51853;DHT22;37894;53.172;6.598;2022-07-23T09:50:42;21.20;99.90
51853;DHT22;37894;53.172;6.598;2022-07-23T09:53:09;21.20;99.90
51853;DHT22;37894;53.172;6.598;2022-07-23T09:55:36;21.20;99.90
51853;DHT22;37894;53.172;6.598;2022-07-23T09:58:08;21.30;99.90
51853;DHT22;37894;53.172;6.598;2022-07-23T10:00:38;21.30;99.90
51853;DHT22;37894;53.172;6.598;2022-07-23T10:03:06;21.50;99.90
51853;DHT22;37894;53.172;6.598;2022-07-23T10:05:33;21.40;99.90
51853;DHT22;37894;53.172;6.598;2022-07-23T10:08:02;21.40;99.90
51853;DHT22;37894;53.172;6.598;2022-07-23T10:10:28;21.40;99.90
51853;DHT22;37894;53.172;6.598;2022-07-23T10:12:55;21.40;99.90
51853;DHT22;37894;53.172;6.598;2022-07-23T10:15:41;21.40;99.90
51853;DHT22;37894;53.172;6.598;2022-07-23T10:18:10;21.30;99.90
51853;DHT22;37894;53.172;6.598;2022-07-23T10:20:36;21.30;99.90
51853;DHT22;37894;53.172;6.598;2022-07-23T10:23:10;21.20;99.90
51853;DHT22;37894;53.172;6.598;2022-07-23T10:26:10;21.20;99.90
51853;DHT22;37894;53.172;6.598;2022-07-23T10:31:29;21.20;99.90
51853;DHT22;37894;53.172;6.598;2022-07-23T10:34:07;21.10;99.90
51853;DHT22;37894;53.172;6.598;2022-07-23T10:36:49;21.10;99.90
51853;DHT22;37894;53.172;6.598;2022-07-23T10:39:24;21.20;99.90
51853;DHT22;37894;53.172;6.598;2022-07-23T10:41:50;21.20;99.90
51853;DHT22;37894;53.172;6.598;2022-07-23T10:44:21;21.30;99.90
51853;DHT22;37894;53.172;6.598;2022-07-23T10:47:04;21.40;99.90
51853;DHT22;37894;53.172;6.598;2022-07-23T10:49:36;21.30;99.90
51853;DHT22;37894;53.172;6.598;2022-07-23T10:57:13;21.20;99.90
51853;DHT22;37894;53.172;6.598;2022-07-23T11:02:38;21.20;99.90
51853;DHT22;37894;53.172;6.598;2022-07-23T11:05:09;21.20;99.90
51853;DHT22;37894;53.172;6.598;2022-07-23T11:07:36;21.10;99.90
51853;DHT22;37894;53.172;6.598;2022-07-23T11:10:03;21.20;99.90
51853;DHT22;37894;53.172;6.598;2022-07-23T11:15:01;21.00;99.90
51853;DHT22;37894;53.172;6.598;2022-07-23T11:17:29;21.00;99.90
51853;DHT22;37894;53.172;6.598;2022-07-23T11:27:49;20.80;99.90
51853;DHT22;37894;53.172;6.598;2022-07-23T11:35:35;20.60;99.90
51853;DHT22;37894;53.172;6.598;2022-07-23T11:38:24;20.50;99.90
51853;DHT22;37894;53.172;6.598;2022-07-23T11:40:54;20.60;99.90
51853;DHT22;37894;53.172;6.598;2022-07-23T11:43:23;20.60;99.90
51853;DHT22;37894;53.172;6.598;2022-07-23T11:45:51;20.80;99.90
51853;DHT22;37894;53.172;6.598;2022-07-23T11:48:21;20.80;99.90
51853;DHT22;37894;53.172;6.598;2022-07-23T11:50:48;20.90;99.90
51853;DHT22;37894;53.172;6.598;2022-07-23T11:53:33;21.10;99.90
51853;DHT22;37894;53.172;6.598;2022-07-23T11:56:04;21.20;99.90
51853;DHT22;37894;53.172;6.598;2022-07-23T11:58:30;21.40;99.90
51853;DHT22;37894;53.172;6.598;2022-07-23T12:00:56;21.60;99.90
51853;DHT22;37894;53.172;6.598;2022-07-23T12:03:22;21.80;99.90
51853;DHT22;37894;53.172;6.598;2022-07-23T12:05:48;22.00;99.90
51853;DHT22;37894;53.172;6.598;2022-07-23T12:08:14;22.00;99.90
51853;DHT22;37894;53.172;6.598;2022-07-23T12:10:42;22.00;99.90
51853;DHT22;37894;53.172;6.598;2022-07-23T12:13:19;22.00;99.90
51853;DHT22;37894;53.172;6.598;2022-07-23T12:15:52;22.20;99.90
51853;DHT22;37894;53.172;6.598;2022-07-23T12:18:22;22.40;99.90
51853;DHT22;37894;53.172;6.598;2022-07-23T12:20:53;22.70;99.90
51853;DHT22;37894;53.172;6.598;2022-07-23T12:23:21;23.00;99.90
51853;DHT22;37894;53.172;6.598;2022-07-23T12:25:48;23.20;99.90
51853;DHT22;37894;53.172;6.598;2022-07-23T12:28:16;23.40;99.90
51853;DHT22;37894;53.172;6.598;2022-07-23T12:30:47;23.50;99.90
51853;DHT22;37894;53.172;6.598;2022-07-23T12:33:18;23.70;99.90
51853;DHT22;37894;53.172;6.598;2022-07-23T12:35:47;23.90;99.90
51853;DHT22;37894;53.172;6.598;2022-07-23T12:38:16;24.20;99.90
51853;DHT22;37894;53.172;6.598;2022-07-23T12:43:36;24.40;96.60
51853;DHT22;37894;53.172;6.598;2022-07-23T12:46:08;24.50;95.60
51853;DHT22;37894;53.172;6.598;2022-07-23T12:51:28;24.70;96.00
51853;DHT22;37894;53.172;6.598;2022-07-23T12:54:14;24.80;93.20
51853;DHT22;37894;53.172;6.598;2022-07-23T12:56:44;24.80;94.50
51853;DHT22;37894;53.172;6.598;2022-07-23T12:59:12;24.80;94.10
51853;DHT22;37894;53.172;6.598;2022-07-23T13:01:43;24.90;95.40
51853;DHT22;37894;53.172;6.598;2022-07-23T13:04:21;25.10;95.80
51853;DHT22;37894;53.172;6.598;2022-07-23T13:07:06;25.40;94.70
51853;DHT22;37894;53.172;6.598;2022-07-23T13:09:33;25.50;94.00
51853;DHT22;37894;53.172;6.598;2022-07-23T13:11:59;25.60;93.30
51853;DHT22;37894;53.172;6.598;2022-07-23T13:14:26;25.80;93.20
51853;DHT22;37894;53.172;6.598;2022-07-23T13:16:53;26.00;92.60
51853;DHT22;37894;53.172;6.598;2022-07-23T13:19:19;26.20;91.30
51853;DHT22;37894;53.172;6.598;2022-07-23T13:21:45;26.40;90.70
51853;DHT22;37894;53.172;6.598;2022-07-23T13:24:12;26.70;90.00
51853;DHT22;37894;53.172;6.598;2022-07-23T13:26:38;26.90;89.80
51853;DHT22;37894;53.172;6.598;2022-07-23T13:29:05;26.90;83.40
51853;DHT22;37894;53.172;6.598;2022-07-23T13:31:31;27.00;82.50
51853;DHT22;37894;53.172;6.598;2022-07-23T13:33:56;26.90;81.90
51853;DHT22;37894;53.172;6.598;2022-07-23T13:36:22;26.70;79.90
51853;DHT22;37894;53.172;6.598;2022-07-23T13:38:48;26.70;78.70
51853;DHT22;37894;53.172;6.598;2022-07-23T13:41:13;26.60;78.60
51853;DHT22;37894;53.172;6.598;2022-07-23T13:43:41;26.90;79.80
51853;DHT22;37894;53.172;6.598;2022-07-23T13:46:07;27.00;77.60
51853;DHT22;37894;53.172;6.598;2022-07-23T13:48:33;27.00;76.70
51853;DHT22;37894;53.172;6.598;2022-07-23T13:50:58;27.40;77.70
51853;DHT22;37894;53.172;6.598;2022-07-23T13:53:24;27.40;73.30
51853;DHT22;37894;53.172;6.598;2022-07-23T13:55:51;27.20;74.60
51853;DHT22;37894;53.172;6.598;2022-07-23T13:58:18;27.40;75.10
51853;DHT22;37894;53.172;6.598;2022-07-23T14:00:47;27.60;73.80
51853;DHT22;37894;53.172;6.598;2022-07-23T14:03:12;27.80;74.10
51853;DHT22;37894;53.172;6.598;2022-07-23T14:05:39;27.90;72.40
51853;DHT22;37894;53.172;6.598;2022-07-23T14:08:05;27.90;72.60
51853;DHT22;37894;53.172;6.598;2022-07-23T14:10:31;27.80;72.50
51853;DHT22;37894;53.172;6.598;2022-07-23T14:12:57;27.40;71.20
51853;DHT22;37894;53.172;6.598;2022-07-23T14:15:25;26.20;71.50
51853;DHT22;37894;53.172;6.598;2022-07-23T14:17:52;27.00;74.00
51853;DHT22;37894;53.172;6.598;2022-07-23T14:20:18;26.70;73.40
51853;DHT22;37894;53.172;6.598;2022-07-23T14:22:44;26.50;72.70
51853;DHT22;37894;53.172;6.598;2022-07-23T14:25:10;26.10;73.10
51853;DHT22;37894;53.172;6.598;2022-07-23T14:27:36;26.00;75.50
51853;DHT22;37894;53.172;6.598;2022-07-23T14:30:04;25.90;75.80
51853;DHT22;37894;53.172;6.598;2022-07-23T14:32:30;25.80;75.70
51853;DHT22;37894;53.172;6.598;2022-07-23T14:34:55;25.70;76.20
51853;DHT22;37894;53.172;6.598;2022-07-23T14:37:21;25.40;76.80
51853;DHT22;37894;53.172;6.598;2022-07-23T14:39:47;25.30;76.70
51853;DHT22;37894;53.172;6.598;2022-07-23T14:42:13;25.10;77.50
51853;DHT22;37894;53.172;6.598;2022-07-23T14:44:39;25.10;78.80
51853;DHT22;37894;53.172;6.598;2022-07-23T14:47:05;24.90;80.70
51853;DHT22;37894;53.172;6.598;2022-07-23T14:49:31;24.90;79.60
51853;DHT22;37894;53.172;6.598;2022-07-23T14:51:57;24.70;80.30
51853;DHT22;37894;53.172;6.598;2022-07-23T14:54:24;24.70;81.00
51853;DHT22;37894;53.172;6.598;2022-07-23T14:56:52;24.70;81.30
51853;DHT22;37894;53.172;6.598;2022-07-23T14:59:18;24.80;82.80
51853;DHT22;37894;53.172;6.598;2022-07-23T15:01:44;24.60;82.50
51853;DHT22;37894;53.172;6.598;2022-07-23T15:04:10;24.70;83.40
51853;DHT22;37894;53.172;6.598;2022-07-23T15:06:36;24.70;84.20
51853;DHT22;37894;53.172;6.598;2022-07-23T15:09:02;24.70;85.60
51853;DHT22;37894;53.172;6.598;2022-07-23T15:11:28;24.70;86.20
51853;DHT22;37894;53.172;6.598;2022-07-23T15:13:56;24.70;85.90
51853;DHT22;37894;53.172;6.598;2022-07-23T15:16:22;24.70;87.60
51853;DHT22;37894;53.172;6.598;2022-07-23T15:18:47;24.60;86.80
51853;DHT22;37894;53.172;6.598;2022-07-23T15:21:13;24.50;85.50
51853;DHT22;37894;53.172;6.598;2022-07-23T15:23:39;24.40;86.90
51853;DHT22;37894;53.172;6.598;2022-07-23T15:26:05;24.30;87.30
51853;DHT22;37894;53.172;6.598;2022-07-23T15:28:31;24.30;88.00
51853;DHT22;37894;53.172;6.598;2022-07-23T15:30:57;24.20;88.50
51853;DHT22;37894;53.172;6.598;2022-07-23T15:33:23;24.20;88.70
51853;DHT22;37894;53.172;6.598;2022-07-23T15:35:49;24.10;89.30
51853;DHT22;37894;53.172;6.598;2022-07-23T15:38:15;24.10;89.60
51853;DHT22;37894;53.172;6.598;2022-07-23T15:40:40;24.10;89.70
51853;DHT22;37894;53.172;6.598;2022-07-23T15:43:06;24.10;89.80
51853;DHT22;37894;53.172;6.598;2022-07-23T15:45:32;24.00;90.20
51853;DHT22;37894;53.172;6.598;2022-07-23T15:47:58;24.00;90.10
51853;DHT22;37894;53.172;6.598;2022-07-23T15:50:24;23.90;90.40
51853;DHT22;37894;53.172;6.598;2022-07-23T15:52:50;23.90;90.10
51853;DHT22;37894;53.172;6.598;2022-07-23T15:55:15;23.90;90.60
51853;DHT22;37894;53.172;6.598;2022-07-23T15:57:41;23.70;90.40
51853;DHT22;37894;53.172;6.598;2022-07-23T16:00:07;23.60;91.00
51853;DHT22;37894;53.172;6.598;2022-07-23T16:02:34;23.60;91.70
51853;DHT22;37894;53.172;6.598;2022-07-23T16:05:00;23.60;92.10